sensor_id;sensor_type;location;lat;lon;timestamp;temperature;humidity
12015;DHT22;6066;48.138;16.402;2023-03-25T00:00:26;12.40;99.90
12015;DHT22;6066;48.138;16.402;2023-03-25T00:02:53;12.40;99.90
12015;DHT22;6066;48.138;16.402;2023-03-25T00:05:20;12.50;99.90
12015;DHT22;6066;48.138;16.402;2023-03-25T00:07:47;12.50;99.90
12015;DHT22;6066;48.138;16.402;2023-03-25T00:10:14;12.50;99.90
12015;DHT22;6066;48.138;16.402;2023-03-25T00:12:41;12.50;99.90
12015;DHT22;6066;48.138;16.402;2023-03-25T00:15:10;12.40;99.90
12015;DHT22;6066;48.138;16.402;2023-03-25T00:17:37;12.40;99.90
12015;DHT22;6066;48.138;16.402;2023-03-25T00:20:05;12.40;99.90
12015;DHT22;6066;48.138;16.402;2023-03-25T00:22:33;12.40;99.90
12015;DHT22;6066;48.138;16.402;2023-03-25T00:25:05;12.40;99.90
12015;DHT22;6066;48.138;16.402;2023-03-25T00:27:32;12.50;99.90
12015;DHT22;6066;48.138;16.402;2023-03-25T00:29:58;12.50;99.90
12015;DHT22;6066;48.138;16.402;2023-03-25T00:32:26;12.40;99.90
12015;DHT22;6066;48.138;16.402;2023-03-25T00:34:54;12.40;99.90
12015;DHT22;6066;48.138;16.402;2023-03-25T00:37:20;12.50;99.90
12015;DHT22;6066;48.138;16.402;2023-03-25T00:39:49;12.50;99.90
12015;DHT22;6066;48.138;16.402;2023-03-25T00:42:16;12.50;99.90
12015;DHT22;6066;48.138;16.402;2023-03-25T00:44:50;12.50;99.90
12015;DHT22;6066;48.138;16.402;2023-03-25T00:47:17;12.50;99.90
12015;DHT22;6066;48.138;16.402;2023-03-25T00:49:46;12.50;99.90
12015;DHT22;6066;48.138;16.402;2023-03-25T00:52:13;12.50;99.90
12015;DHT22;6066;48.138;16.402;2023-03-25T00:54:40;12.60;99.90
12015;DHT22;6066;48.138;16.402;2023-03-25T00:57:07;12.60;99.90
12015;DHT22;6066;48.138;16.402;2023-03-25T00:59:34;12.60;99.90
12015;DHT22;6066;48.138;16.402;2023-03-25T01:02:01;12.60;99.90
12015;DHT22;6066;48.138;16.402;2023-03-25T01:04:28;12.60;99.90
12015;DHT22;6066;48.138;16.402;2023-03-25T01:06:56;12.60;99.90
12015;DHT22;6066;48.138;16.402;2023-03-25T01:09:23;12.60;99.90
12015;DHT22;6066;48.138;16.402;2023-03-25T01:11:49;12.60;99.90
12015;DHT22;6066;48.138;16.402;2023-03-25T01:14:17;12.60;99.90
12015;DHT22;6066;48.138;16.402;2023-03-25T01:16:44;12.60;99.90
12015;DHT22;6066;48.138;16.402;2023-03-25T01:19:11;12.70;99.90
12015;DHT22;6066;48.138;16.402;2023-03-25T01:21:38;12.60;99.90
12015;DHT22;6066;48.138;16.402;2023-03-25T01:24:07;12.60;99.90
12015;DHT22;6066;48.138;16.402;2023-03-25T01:26:36;12.60;99.90
12015;DHT22;6066;48.138;16.402;2023-03-25T01:29:05;12.60;99.90
12015;DHT22;6066;48.138;16.402;2023-03-25T01:31:32;12.60;99.90
12015;DHT22;6066;48.138;16.402;2023-03-25T01:33:59;12.60;99.90
12015;DHT22;6066;48.138;16.402;2023-03-25T01:36:25;12.60;99.90
12015;DHT22;6066;48.138;16.402;2023-03-25T01:38:54;12.60;99.90
12015;DHT22;6066;48.138;16.402;2023-03-25T01:41:22;12.60;99.90
12015;DHT22;6066;48.138;16.402;2023-03-25T01:43:59;12.60;99.90
12015;DHT22;6066;48.138;16.402;2023-03-25T01:46:26;12.60;99.90
12015;DHT22;6066;48.138;16.402;2023-03-25T01:48:53;12.50;99.90
12015;DHT22;6066;48.138;16.402;2023-03-25T01:51:20;12.50;99.90
12015;DHT22;6066;48.138;16.402;2023-03-25T01:53:49;12.60;99.90
12015;DHT22;6066;48.138;16.402;2023-03-25T01:56:18;12.60;99.90
12015;DHT22;6066;48.138;16.402;2023-03-25T01:58:48;12.60;99.90
12015;DHT22;6066;48.138;16.402;2023-03-25T02:01:15;12.60;99.90
12015;DHT22;6066;48.138;16.402;2023-03-25T02:03:42;12.60;99.90
12015;DHT22;6066;48.138;16.402;2023-03-25T02:06:11;12.60;99.90
12015;DHT22;6066;48.138;16.402;2023-03-25T02:08:41;12.60;99.90
12015;DHT22;6066;48.138;16.402;2023-03-25T02:11:07;12.60;99.90
12015;DHT22;6066;48.138;16.402;2023-03-25T02:13:35;12.60;99.90
12015;DHT22;6066;48.138;16.402;2023-03-25T02:16:09;12.60;99.90
12015;DHT22;6066;48.138;16.402;2023-03-25T02:18:39;12.60;99.90
12015;DHT22;6066;48.138;16.402;2023-03-25T02:21:13;12.60;99.90
12015;DHT22;6066;48.138;16.402;2023-03-25T02:24:02;12.60;99.90
12015;DHT22;6066;48.138;16.402;2023-03-25T02:26:46;12.60;99.90
12015;DHT22;6066;48.138;16.402;2023-03-25T02:29:21;12.60;99.90
12015;DHT22;6066;48.138;16.402;2023-03-25T02:32:01;12.60;99.90
12015;DHT22;6066;48.138;16.402;2023-03-25T02:34:44;12.60;99.90
12015;DHT22;6066;48.138;16.402;2023-03-25T02:37:43;12.50;99.90
12015;DHT22;6066;48.138;16.402;2023-03-25T02:40:12;12.50;99.90
12015;DHT22;6066;48.138;16.402;2023-03-25T02:42:44;12.40;99.90
12015;DHT22;6066;48.138;16.402;2023-03-25T02:45:14;12.40;99.90
12015;DHT22;6066;48.138;16.402;2023-03-25T02:47:45;12.40;99.90
12015;DHT22;6066;48.138;16.402;2023-03-25T02:50:13;12.40;99.90
12015;DHT22;6066;48.138;16.402;2023-03-25T02:52:42;12.40;99.90
12015;DHT22;6066;48.138;16.402;2023-03-25T02:55:11;12.40;99.90
12015;DHT22;6066;48.138;16.402;2023-03-25T02:57:41;12.40;99.90
12015;DHT22;6066;48.138;16.402;2023-03-25T03:00:10;12.40;99.90
12015;DHT22;6066;48.138;16.402;2023-03-25T03:02:40;12.30;99.90
12015;DHT22;6066;48.138;16.402;2023-03-25T03:05:19;12.30;99.90
12015;DHT22;6066;48.138;16.402;2023-03-25T03:07:46;12.30;99.90
12015;DHT22;6066;48.138;16.402;2023-03-25T03:10:19;12.30;99.90
12015;DHT22;6066;48.138;16.402;2023-03-25T03:12:50;12.20;99.90
12015;DHT22;6066;48.138;16.402;2023-03-25T03:15:23;12.20;99.90
12015;DHT22;6066;48.138;16.402;2023-03-25T03:17:55;12.20;99.90
12015;DHT22;6066;48.138;16.402;2023-03-25T03:20:27;12.10;99.90
12015;DHT22;6066;48.138;16.402;2023-03-25T03:23:00;12.10;99.90
12015;DHT22;6066;48.138;16.402;2023-03-25T03:25:32;12.20;99.90
12015;DHT22;6066;48.138;16.402;2023-03-25T03:28:01;12.10;99.90
12015;DHT22;6066;48.138;16.402;2023-03-25T03:30:30;12.10;99.90
12015;DHT22;6066;48.138;16.402;2023-03-25T03:33:00;12.10;99.90
12015;DHT22;6066;48.138;16.402;2023-03-25T03:35:29;12.10;99.90
12015;DHT22;6066;48.138;16.402;2023-03-25T03:37:57;12.10;99.90
12015;DHT22;6066;48.138;16.402;2023-03-25T03:40:25;12.10;99.90
12015;DHT22;6066;48.138;16.402;2023-03-25T03:42:55;12.00;99.90
12015;DHT22;6066;48.138;16.402;2023-03-25T03:45:24;12.10;99.90
12015;DHT22;6066;48.138;16.402;2023-03-25T03:47:53;12.10;99.90
12015;DHT22;6066;48.138;16.402;2023-03-25T03:50:21;12.10;99.90
12015;DHT22;6066;48.138;16.402;2023-03-25T03:52:50;12.10;99.90
12015;DHT22;6066;48.138;16.402;2023-03-25T03:55:19;12.10;99.90
12015;DHT22;6066;48.138;16.402;2023-03-25T03:57:49;12.10;99.90
12015;DHT22;6066;48.138;16.402;2023-03-25T04:00:19;12.00;99.90
12015;DHT22;6066;48.138;16.402;2023-03-25T04:02:48;12.00;99.90
12015;DHT22;6066;48.138;16.402;2023-03-25T04:05:16;12.00;99.90
12015;DHT22;6066;48.138;16.402;2023-03-25T04:07:44;12.00;99.90
12015;DHT22;6066;48.138;16.402;2023-03-25T04:10:20;12.00;99.90
12015;DHT22;6066;48.138;16.402;2023-03-25T04:12:53;11.90;99.90
12015;DHT22;6066;48.138;16.402;2023-03-25T04:15:22;11.90;99.90
12015;DHT22;6066;48.138;16.402;2023-03-25T04:17:49;11.90;99.90
12015;DHT22;6066;48.138;16.402;2023-03-25T04:20:17;11.90;99.90
12015;DHT22;6066;48.138;16.402;2023-03-25T04:22:47;11.80;99.90
12015;DHT22;6066;48.138;16.402;2023-03-25T04:25:16;11.90;99.90
12015;DHT22;6066;48.138;16.402;2023-03-25T04:27:45;11.90;99.90
12015;DHT22;6066;48.138;16.402;2023-03-25T04:30:13;11.90;99.90
12015;DHT22;6066;48.138;16.402;2023-03-25T04:32:43;11.90;99.90
12015;DHT22;6066;48.138;16.402;2023-03-25T04:35:10;11.80;99.90
12015;DHT22;6066;48.138;16.402;2023-03-25T04:37:37;11.80;99.90
12015;DHT22;6066;48.138;16.402;2023-03-25T04:40:06;11.70;99.90
12015;DHT22;6066;48.138;16.402;2023-03-25T04:42:33;11.70;99.90
12015;DHT22;6066;48.138;16.402;2023-03-25T04:45:01;11.70;99.90
12015;DHT22;6066;48.138;16.402;2023-03-25T04:47:28;11.70;99.90
12015;DHT22;6066;48.138;16.402;2023-03-25T04:49:56;11.70;99.90
12015;DHT22;6066;48.138;16.402;2023-03-25T04:52:23;11.70;99.90
12015;DHT22;6066;48.138;16.402;2023-03-25T04:54:49;11.70;99.90
12015;DHT22;6066;48.138;16.402;2023-03-25T04:57:16;11.70;99.90
12015;DHT22;6066;48.138;16.402;2023-03-25T04:59:44;11.70;99.90
12015;DHT22;6066;48.138;16.402;2023-03-25T05:02:11;11.60;99.90
12015;DHT22;6066;48.138;16.402;2023-03-25T05:04:39;11.60;99.90
12015;DHT22;6066;48.138;16.402;2023-03-25T05:07:08;11.60;99.90
12015;DHT22;6066;48.138;16.402;2023-03-25T05:09:35;11.60;99.90
12015;DHT22;6066;48.138;16.402;2023-03-25T05:12:01;11.60;99.90
12015;DHT22;6066;48.138;16.402;2023-03-25T05:14:28;11.60;99.90
12015;DHT22;6066;48.138;16.402;2023-03-25T05:16:55;11.60;99.90
12015;DHT22;6066;48.138;16.402;2023-03-25T05:19:23;11.60;99.90
12015;DHT22;6066;48.138;16.402;2023-03-25T05:21:50;11.70;99.90
12015;DHT22;6066;48.138;16.402;2023-03-25T05:24:18;11.70;99.90
12015;DHT22;6066;48.138;16.402;2023-03-25T05:26:45;11.60;99.90
12015;DHT22;6066;48.138;16.402;2023-03-25T05:29:12;11.60;99.90
12015;DHT22;6066;48.138;16.402;2023-03-25T05:31:39;11.60;99.90
12015;DHT22;6066;48.138;16.402;2023-03-25T05:34:06;11.60;99.90
12015;DHT22;6066;48.138;16.402;2023-03-25T05:36:33;11.60;99.90
12015;DHT22;6066;48.138;16.402;2023-03-25T05:39:00;11.70;99.90
12015;DHT22;6066;48.138;16.402;2023-03-25T05:41:30;11.70;99.90
12015;DHT22;6066;48.138;16.402;2023-03-25T05:43:58;11.70;99.90
12015;DHT22;6066;48.138;16.402;2023-03-25T05:46:25;11.80;99.90
12015;DHT22;6066;48.138;16.402;2023-03-25T05:48:52;11.80;99.90
12015;DHT22;6066;48.138;16.402;2023-03-25T05:51:19;11.90;99.90
12015;DHT22;6066;48.138;16.402;2023-03-25T05:53:47;12.00;99.90
12015;DHT22;6066;48.138;16.402;2023-03-25T05:56:14;12.00;99.90
12015;DHT22;6066;48.138;16.402;2023-03-25T05:58:43;12.10;99.90
12015;DHT22;6066;48.138;16.402;2023-03-25T06:01:10;12.10;99.90
12015;DHT22;6066;48.138;16.402;2023-03-25T06:03:39;12.20;99.90
12015;DHT22;6066;48.138;16.402;2023-03-25T06:06:06;12.20;99.90
12015;DHT22;6066;48.138;16.402;2023-03-25T06:08:38;12.20;99.90
12015;DHT22;6066;48.138;16.402;2023-03-25T06:11:05;12.10;99.90
12015;DHT22;6066;48.138;16.402;2023-03-25T06:13:33;12.10;99.90
12015;DHT22;6066;48.138;16.402;2023-03-25T06:16:05;12.10;99.90
12015;DHT22;6066;48.138;16.402;2023-03-25T06:18:33;12.10;99.90
12015;DHT22;6066;48.138;16.402;2023-03-25T06:20:59;12.10;99.90
12015;DHT22;6066;48.138;16.402;2023-03-25T06:23:26;12.10;99.90
12015;DHT22;6066;48.138;16.402;2023-03-25T06:25:53;12.10;99.90
12015;DHT22;6066;48.138;16.402;2023-03-25T06:28:20;12.20;99.90
12015;DHT22;6066;48.138;16.402;2023-03-25T06:30:48;12.20;99.90
12015;DHT22;6066;48.138;16.402;2023-03-25T06:33:16;12.20;99.90
12015;DHT22;6066;48.138;16.402;2023-03-25T06:35:45;12.30;99.90
12015;DHT22;6066;48.138;16.402;2023-03-25T06:38:14;12.20;99.90
12015;DHT22;6066;48.138;16.402;2023-03-25T06:40:40;12.20;99.90
12015;DHT22;6066;48.138;16.402;2023-03-25T06:43:07;12.20;99.90
12015;DHT22;6066;48.138;16.402;2023-03-25T06:45:34;12.20;99.90
12015;DHT22;6066;48.138;16.402;2023-03-25T06:48:00;12.20;99.90
12015;DHT22;6066;48.138;16.402;2023-03-25T06:50:28;12.20;99.90
12015;DHT22;6066;48.138;16.402;2023-03-25T06:52:55;12.20;99.90
12015;DHT22;6066;48.138;16.402;2023-03-25T06:55:22;12.30;99.90
12015;DHT22;6066;48.138;16.402;2023-03-25T06:57:49;12.30;99.90
12015;DHT22;6066;48.138;16.402;2023-03-25T07:00:16;12.30;99.90
12015;DHT22;6066;48.138;16.402;2023-03-25T07:02:44;12.30;99.90
12015;DHT22;6066;48.138;16.402;2023-03-25T07:05:11;12.30;99.90
12015;DHT22;6066;48.138;16.402;2023-03-25T07:07:39;12.30;99.90
12015;DHT22;6066;48.138;16.402;2023-03-25T07:10:06;12.30;99.90
12015;DHT22;6066;48.138;16.402;2023-03-25T07:12:33;12.20;99.90
12015;DHT22;6066;48.138;16.402;2023-03-25T07:15:00;12.20;99.90
12015;DHT22;6066;48.138;16.402;2023-03-25T07:17:26;12.20;99.90
12015;DHT22;6066;48.138;16.402;2023-03-25T07:19:53;12.20;99.90
12015;DHT22;6066;48.138;16.402;2023-03-25T07:22:20;12.30;99.90
12015;DHT22;6066;48.138;16.402;2023-03-25T07:24:48;12.30;99.90
12015;DHT22;6066;48.138;16.402;2023-03-25T07:27:16;12.30;99.90
12015;DHT22;6066;48.138;16.402;2023-03-25T07:29:43;12.40;99.90
12015;DHT22;6066;48.138;16.402;2023-03-25T07:32:10;12.40;99.90
12015;DHT22;6066;48.138;16.402;2023-03-25T07:34:38;12.40;99.90
12015;DHT22;6066;48.138;16.402;2023-03-25T07:37:05;12.50;99.90
12015;DHT22;6066;48.138;16.402;2023-03-25T07:39:32;12.50;99.90
12015;DHT22;6066;48.138;16.402;2023-03-25T07:42:00;12.50;99.90
12015;DHT22;6066;48.138;16.402;2023-03-25T07:44:27;12.50;99.90
12015;DHT22;6066;48.138;16.402;2023-03-25T07:46:54;12.60;99.90
12015;DHT22;6066;48.138;16.402;2023-03-25T07:49:20;12.70;99.90
12015;DHT22;6066;48.138;16.402;2023-03-25T07:51:47;12.80;99.90
12015;DHT22;6066;48.138;16.402;2023-03-25T07:54:13;12.90;99.90
12015;DHT22;6066;48.138;16.402;2023-03-25T07:56:40;13.00;99.90
12015;DHT22;6066;48.138;16.402;2023-03-25T07:59:08;13.00;99.90
12015;DHT22;6066;48.138;16.402;2023-03-25T08:01:35;13.00;99.90
12015;DHT22;6066;48.138;16.402;2023-03-25T08:04:02;13.10;99.90
12015;DHT22;6066;48.138;16.402;2023-03-25T08:06:28;13.10;99.90
12015;DHT22;6066;48.138;16.402;2023-03-25T08:08:55;13.10;99.90
12015;DHT22;6066;48.138;16.402;2023-03-25T08:11:22;13.10;99.90
12015;DHT22;6066;48.138;16.402;2023-03-25T08:13:48;13.10;99.90
12015;DHT22;6066;48.138;16.402;2023-03-25T08:16:17;13.10;99.90
12015;DHT22;6066;48.138;16.402;2023-03-25T08:18:45;13.10;99.90
12015;DHT22;6066;48.138;16.402;2023-03-25T08:21:12;13.00;99.90
12015;DHT22;6066;48.138;16.402;2023-03-25T08:23:40;13.00;99.90
12015;DHT22;6066;48.138;16.402;2023-03-25T08:26:09;13.00;99.90
12015;DHT22;6066;48.138;16.402;2023-03-25T08:28:37;13.00;99.90
12015;DHT22;6066;48.138;16.402;2023-03-25T08:31:05;12.90;99.90
12015;DHT22;6066;48.138;16.402;2023-03-25T08:33:35;12.90;99.90
12015;DHT22;6066;48.138;16.402;2023-03-25T08:36:05;12.90;99.90
12015;DHT22;6066;48.138;16.402;2023-03-25T08:38:38;12.90;99.90
12015;DHT22;6066;48.138;16.402;2023-03-25T08:41:06;13.00;99.90
12015;DHT22;6066;48.138;16.402;2023-03-25T08:43:34;13.00;99.90
12015;DHT22;6066;48.138;16.402;2023-03-25T08:46:01;13.00;99.90
12015;DHT22;6066;48.138;16.402;2023-03-25T08:48:29;13.10;99.90
12015;DHT22;6066;48.138;16.402;2023-03-25T08:50:58;13.10;99.90
12015;DHT22;6066;48.138;16.402;2023-03-25T08:53:28;13.20;99.90
12015;DHT22;6066;48.138;16.402;2023-03-25T08:55:56;13.20;99.90
12015;DHT22;6066;48.138;16.402;2023-03-25T08:58:26;13.20;99.90
12015;DHT22;6066;48.138;16.402;2023-03-25T09:00:54;13.20;99.90
12015;DHT22;6066;48.138;16.402;2023-03-25T09:03:22;13.20;99.90
12015;DHT22;6066;48.138;16.402;2023-03-25T09:05:51;13.20;99.90
12015;DHT22;6066;48.138;16.402;2023-03-25T09:08:21;13.20;99.90
12015;DHT22;6066;48.138;16.402;2023-03-25T09:10:53;13.20;99.90
12015;DHT22;6066;48.138;16.402;2023-03-25T09:13:21;13.20;99.90
12015;DHT22;6066;48.138;16.402;2023-03-25T09:15:48;13.20;99.90
12015;DHT22;6066;48.138;16.402;2023-03-25T09:18:16;13.30;99.90
12015;DHT22;6066;48.138;16.402;2023-03-25T09:20:43;13.30;99.90
12015;DHT22;6066;48.138;16.402;2023-03-25T09:23:12;13.40;99.90
12015;DHT22;6066;48.138;16.402;2023-03-25T09:25:41;13.50;99.90
12015;DHT22;6066;48.138;16.402;2023-03-25T09:28:08;13.60;99.90
12015;DHT22;6066;48.138;16.402;2023-03-25T09:30:36;13.60;99.90
12015;DHT22;6066;48.138;16.402;2023-03-25T09:33:04;13.60;99.90
12015;DHT22;6066;48.138;16.402;2023-03-25T09:35:31;13.60;99.90
12015;DHT22;6066;48.138;16.402;2023-03-25T09:37:59;13.60;99.90
12015;DHT22;6066;48.138;16.402;2023-03-25T09:40:26;13.50;99.90
12015;DHT22;6066;48.138;16.402;2023-03-25T09:43:02;13.60;99.90
12015;DHT22;6066;48.138;16.402;2023-03-25T09:45:31;13.60;99.90
12015;DHT22;6066;48.138;16.402;2023-03-25T09:48:02;13.50;99.90
12015;DHT22;6066;48.138;16.402;2023-03-25T09:50:30;13.60;99.90
12015;DHT22;6066;48.138;16.402;2023-03-25T09:53:00;13.60;99.90
12015;DHT22;6066;48.138;16.402;2023-03-25T09:55:30;13.60;99.90
12015;DHT22;6066;48.138;16.402;2023-03-25T09:58:01;13.70;99.90
12015;DHT22;6066;48.138;16.402;2023-03-25T10:00:31;13.70;99.90
12015;DHT22;6066;48.138;16.402;2023-03-25T10:03:08;13.70;99.90
12015;DHT22;6066;48.138;16.402;2023-03-25T10:05:45;13.70;99.90
12015;DHT22;6066;48.138;16.402;2023-03-25T10:08:15;13.80;99.90
12015;DHT22;6066;48.138;16.402;2023-03-25T10:10:46;13.90;99.90
12015;DHT22;6066;48.138;16.402;2023-03-25T10:13:19;13.90;99.90
12015;DHT22;6066;48.138;16.402;2023-03-25T10:15:49;14.00;99.90
12015;DHT22;6066;48.138;16.402;2023-03-25T10:21:18;14.10;99.90
12015;DHT22;6066;48.138;16.402;2023-03-25T10:23:52;14.10;99.90
12015;DHT22;6066;48.138;16.402;2023-03-25T10:26:24;14.10;99.90
12015;DHT22;6066;48.138;16.402;2023-03-25T10:29:01;14.20;99.90
12015;DHT22;6066;48.138;16.402;2023-03-25T10:31:33;14.20;99.90
12015;DHT22;6066;48.138;16.402;2023-03-25T10:34:03;14.30;99.90
12015;DHT22;6066;48.138;16.402;2023-03-25T10:36:33;14.30;99.90
12015;DHT22;6066;48.138;16.402;2023-03-25T10:39:01;14.30;99.90
12015;DHT22;6066;48.138;16.402;2023-03-25T10:41:30;14.20;99.90
12015;DHT22;6066;48.138;16.402;2023-03-25T10:44:03;14.20;99.90
12015;DHT22;6066;48.138;16.402;2023-03-25T10:46:34;14.20;99.90
12015;DHT22;6066;48.138;16.402;2023-03-25T10:49:03;14.20;99.90
12015;DHT22;6066;48.138;16.402;2023-03-25T10:51:31;14.00;99.90
12015;DHT22;6066;48.138;16.402;2023-03-25T10:53:59;14.00;99.90
12015;DHT22;6066;48.138;16.402;2023-03-25T10:56:26;13.90;99.90
12015;DHT22;6066;48.138;16.402;2023-03-25T10:58:56;13.80;99.90
12015;DHT22;6066;48.138;16.402;2023-03-25T11:01:29;13.80;99.90
12015;DHT22;6066;48.138;16.402;2023-03-25T11:03:59;13.80;99.90
12015;DHT22;6066;48.138;16.402;2023-03-25T11:06:26;13.80;99.90
12015;DHT22;6066;48.138;16.402;2023-03-25T11:09:13;13.80;99.90
12015;DHT22;6066;48.138;16.402;2023-03-25T11:11:42;13.80;99.90
12015;DHT22;6066;48.138;16.402;2023-03-25T11:14:09;13.90;99.90
12015;DHT22;6066;48.138;16.402;2023-03-25T11:16:41;13.90;99.90
12015;DHT22;6066;48.138;16.402;2023-03-25T11:19:13;13.90;99.90
12015;DHT22;6066;48.138;16.402;2023-03-25T11:21:44;14.00;99.90
12015;DHT22;6066;48.138;16.402;2023-03-25T11:24:12;14.10;99.90
12015;DHT22;6066;48.138;16.402;2023-03-25T11:26:40;14.10;99.90
12015;DHT22;6066;48.138;16.402;2023-03-25T11:29:11;14.20;99.90
12015;DHT22;6066;48.138;16.402;2023-03-25T11:31:39;14.30;99.90
12015;DHT22;6066;48.138;16.402;2023-03-25T11:34:13;14.40;99.90
12015;DHT22;6066;48.138;16.402;2023-03-25T11:36:46;14.50;99.90
12015;DHT22;6066;48.138;16.402;2023-03-25T11:39:15;14.50;99.90
12015;DHT22;6066;48.138;16.402;2023-03-25T11:41:42;14.60;99.90
12015;DHT22;6066;48.138;16.402;2023-03-25T11:44:14;14.60;99.90
12015;DHT22;6066;48.138;16.402;2023-03-25T11:46:45;14.70;99.90
12015;DHT22;6066;48.138;16.402;2023-03-25T11:49:15;14.80;99.90
12015;DHT22;6066;48.138;16.402;2023-03-25T11:51:43;14.90;99.90
12015;DHT22;6066;48.138;16.402;2023-03-25T11:54:11;14.90;99.90
12015;DHT22;6066;48.138;16.402;2023-03-25T11:56:40;15.00;99.90
12015;DHT22;6066;48.138;16.402;2023-03-25T11:59:16;15.10;99.90
12015;DHT22;6066;48.138;16.402;2023-03-25T12:01:44;15.20;99.90
12015;DHT22;6066;48.138;16.402;2023-03-25T12:04:13;15.20;99.90
12015;DHT22;6066;48.138;16.402;2023-03-25T12:06:53;15.20;99.90
12015;DHT22;6066;48.138;16.402;2023-03-25T12:09:21;15.30;99.90
12015;DHT22;6066;48.138;16.402;2023-03-25T12:11:50;15.40;99.90
12015;DHT22;6066;48.138;16.402;2023-03-25T12:14:23;15.40;99.90
12015;DHT22;6066;48.138;16.402;2023-03-25T12:16:53;15.30;99.90
12015;DHT22;6066;48.138;16.402;2023-03-25T12:19:26;15.30;99.90
12015;DHT22;6066;48.138;16.402;2023-03-25T12:22:00;15.20;99.90
12015;DHT22;6066;48.138;16.402;2023-03-25T12:24:34;15.30;99.90
12015;DHT22;6066;48.138;16.402;2023-03-25T12:27:08;15.30;99.90
12015;DHT22;6066;48.138;16.402;2023-03-25T12:29:39;15.30;99.90
12015;DHT22;6066;48.138;16.402;2023-03-25T12:32:17;15.40;99.90
12015;DHT22;6066;48.138;16.402;2023-03-25T12:34:50;15.40;99.90
12015;DHT22;6066;48.138;16.402;2023-03-25T12:37:20;15.50;99.90
12015;DHT22;6066;48.138;16.402;2023-03-25T12:39:54;15.50;99.90
12015;DHT22;6066;48.138;16.402;2023-03-25T12:42:27;15.50;99.90
12015;DHT22;6066;48.138;16.402;2023-03-25T12:45:02;15.40;99.90
12015;DHT22;6066;48.138;16.402;2023-03-25T12:47:33;15.40;99.90
12015;DHT22;6066;48.138;16.402;2023-03-25T12:52:48;15.70;99.90
12015;DHT22;6066;48.138;16.402;2023-03-25T12:55:24;15.90;99.90
12015;DHT22;6066;48.138;16.402;2023-03-25T12:57:58;16.10;99.90
12015;DHT22;6066;48.138;16.402;2023-03-25T13:00:30;16.40;99.90
12015;DHT22;6066;48.138;16.402;2023-03-25T13:05:45;16.80;99.90
12015;DHT22;6066;48.138;16.402;2023-03-25T13:08:15;17.00;99.90
12015;DHT22;6066;48.138;16.402;2023-03-25T13:10:44;17.10;99.90
12015;DHT22;6066;48.138;16.402;2023-03-25T13:13:13;17.20;99.90
12015;DHT22;6066;48.138;16.402;2023-03-25T13:15:41;17.40;99.90
12015;DHT22;6066;48.138;16.402;2023-03-25T13:18:10;17.50;99.90
12015;DHT22;6066;48.138;16.402;2023-03-25T13:20:39;17.50;99.90
12015;DHT22;6066;48.138;16.402;2023-03-25T13:23:07;17.40;99.90
12015;DHT22;6066;48.138;16.402;2023-03-25T13:25:41;17.30;99.90
12015;DHT22;6066;48.138;16.402;2023-03-25T13:28:12;17.40;99.90
12015;DHT22;6066;48.138;16.402;2023-03-25T13:30:41;17.10;99.80
12015;DHT22;6066;48.138;16.402;2023-03-25T13:33:10;17.10;99.90
12015;DHT22;6066;48.138;16.402;2023-03-25T13:35:40;17.00;99.70
12015;DHT22;6066;48.138;16.402;2023-03-25T13:38:10;17.20;99.40
12015;DHT22;6066;48.138;16.402;2023-03-25T13:40:42;17.30;99.40
12015;DHT22;6066;48.138;16.402;2023-03-25T13:43:11;17.30;98.70
12015;DHT22;6066;48.138;16.402;2023-03-25T13:45:43;17.10;99.80
12015;DHT22;6066;48.138;16.402;2023-03-25T13:48:13;16.80;99.50
12015;DHT22;6066;48.138;16.402;2023-03-25T13:50:44;16.70;99.10
12015;DHT22;6066;48.138;16.402;2023-03-25T13:53:12;16.60;99.20
12015;DHT22;6066;48.138;16.402;2023-03-25T13:55:42;16.50;99.40
12015;DHT22;6066;48.138;16.402;2023-03-25T13:58:21;16.50;99.30
12015;DHT22;6066;48.138;16.402;2023-03-25T14:01:03;16.50;99.50
12015;DHT22;6066;48.138;16.402;2023-03-25T14:03:43;16.60;99.40
12015;DHT22;6066;48.138;16.402;2023-03-25T14:06:26;16.60;99.70
12015;DHT22;6066;48.138;16.402;2023-03-25T14:09:19;16.60;99.90
12015;DHT22;6066;48.138;16.402;2023-03-25T14:11:53;16.80;99.90
12015;DHT22;6066;48.138;16.402;2023-03-25T14:14:23;17.00;99.90
12015;DHT22;6066;48.138;16.402;2023-03-25T14:16:52;17.20;99.30
12015;DHT22;6066;48.138;16.402;2023-03-25T14:19:28;17.50;99.10
12015;DHT22;6066;48.138;16.402;2023-03-25T14:21:55;17.40;99.50
12015;DHT22;6066;48.138;16.402;2023-03-25T14:24:23;17.40;98.20
12015;DHT22;6066;48.138;16.402;2023-03-25T14:26:53;17.50;98.60
12015;DHT22;6066;48.138;16.402;2023-03-25T14:29:27;17.50;99.10
12015;DHT22;6066;48.138;16.402;2023-03-25T14:31:59;17.50;98.20
12015;DHT22;6066;48.138;16.402;2023-03-25T14:34:26;17.40;97.60
12015;DHT22;6066;48.138;16.402;2023-03-25T14:39:52;17.50;98.50
12015;DHT22;6066;48.138;16.402;2023-03-25T14:42:23;17.70;98.70
12015;DHT22;6066;48.138;16.402;2023-03-25T14:44:51;17.60;97.90
12015;DHT22;6066;48.138;16.402;2023-03-25T14:47:26;17.40;97.90
12015;DHT22;6066;48.138;16.402;2023-03-25T14:49:55;17.00;98.20
12015;DHT22;6066;48.138;16.402;2023-03-25T14:52:29;16.70;98.70
12015;DHT22;6066;48.138;16.402;2023-03-25T14:54:57;16.70;98.40
12015;DHT22;6066;48.138;16.402;2023-03-25T14:57:28;16.70;99.10
12015;DHT22;6066;48.138;16.402;2023-03-25T14:59:59;16.70;98.00
12015;DHT22;6066;48.138;16.402;2023-03-25T15:02:33;16.60;98.50
12015;DHT22;6066;48.138;16.402;2023-03-25T15:05:02;16.50;99.10
12015;DHT22;6066;48.138;16.402;2023-03-25T15:07:40;16.20;98.60
12015;DHT22;6066;48.138;16.402;2023-03-25T15:10:17;15.80;99.10
12015;DHT22;6066;48.138;16.402;2023-03-25T15:12:47;15.60;99.20
12015;DHT22;6066;48.138;16.402;2023-03-25T15:15:24;15.40;99.60
12015;DHT22;6066;48.138;16.402;2023-03-25T15:17:51;15.20;99.60
12015;DHT22;6066;48.138;16.402;2023-03-25T15:20:28;15.10;99.90
12015;DHT22;6066;48.138;16.402;2023-03-25T15:25:42;14.90;99.90
12015;DHT22;6066;48.138;16.402;2023-03-25T15:28:11;14.80;99.90
12015;DHT22;6066;48.138;16.402;2023-03-25T15:33:29;14.80;99.90
12015;DHT22;6066;48.138;16.402;2023-03-25T15:36:04;15.00;99.90
12015;DHT22;6066;48.138;16.402;2023-03-25T15:38:48;15.20;99.90
12015;DHT22;6066;48.138;16.402;2023-03-25T15:41:21;15.50;99.90
12015;DHT22;6066;48.138;16.402;2023-03-25T15:44:02;15.60;99.90
12015;DHT22;6066;48.138;16.402;2023-03-25T15:46:53;15.60;99.90
12015;DHT22;6066;48.138;16.402;2023-03-25T15:49:31;15.40;99.90
12015;DHT22;6066;48.138;16.402;2023-03-25T15:52:02;15.20;99.90
12015;DHT22;6066;48.138;16.402;2023-03-25T15:54:35;15.00;99.90
12015;DHT22;6066;48.138;16.402;2023-03-25T15:57:04;14.90;99.90
12015;DHT22;6066;48.138;16.402;2023-03-25T15:59:37;14.80;99.90
12015;DHT22;6066;48.138;16.402;2023-03-25T16:02:10;14.80;99.90